Palmas, Brazil
Current Conditions -  °F | °C
As of 6:00 PM on Monday 24 Nov 2014 (Local Time) from SBPJ Reporting Station
Thunderstorm Thunderstorm  
Wind Chill: 27°   Ceiling: Unl
Heat Index: 29°   Visibility: 6mi
Dew Point: 22°   Wind: 5mph
Humidity: 74%   Direction: 150°SSE
Pressure: 29.83"   Gusts: NA
Location:  10.21°S, 48.36°W
Report Text: SBPJ 242100Z 15004KT 9999 TS FEW025 FEW030CB 27/22 Q1010
Loading
Personal Weather Stations






























Interactive Weather Map New forecast layout! Learn more

10-Day Weather Forecast

Advertisements
Track Severe Weather on mobile